createdAt,value
2022-11-14T00:02:31.346Z,19.55
2022-11-14T00:07:54.539Z,20.77
2022-11-14T00:13:17.775Z,20.02
2022-11-14T00:18:39.722Z,20.30
2022-11-14T00:24:02.944Z,20.80
2022-11-14T00:29:24.749Z,21.98
2022-11-14T00:34:46.557Z,22.05
2022-11-14T00:40:10.712Z,21.00
2022-11-14T00:45:32.599Z,23.17
2022-11-14T00:50:54.502Z,23.95
2022-11-14T00:56:17.605Z,24.10
2022-11-14T01:01:39.580Z,24.27
2022-11-14T01:07:01.207Z,25.85
2022-11-14T01:12:24.474Z,25.35
2022-11-14T01:17:46.263Z,26.83
2022-11-14T01:23:08.802Z,27.15
2022-11-14T01:28:33.196Z,26.45
2022-11-14T01:33:56.137Z,26.98
2022-11-14T01:39:18.280Z,27.08
2022-11-14T01:44:48.535Z,26.42
2022-11-14T01:50:11.662Z,27.42
2022-11-14T01:55:33.800Z,26.77
2022-11-14T02:00:57.820Z,27.30
2022-11-14T02:06:23.716Z,28.73
2022-11-14T02:11:47.232Z,28.30
2022-11-14T02:22:54.072Z,27.00
2022-11-14T02:28:15.883Z,27.45
2022-11-14T02:33:37.949Z,27.33
2022-11-14T02:39:01.122Z,27.77
2022-11-14T02:44:23.153Z,26.50
2022-11-14T02:49:44.977Z,28.05
2022-11-14T02:55:08.920Z,25.65
2022-11-14T03:00:30.711Z,28.23
2022-11-14T03:05:53.512Z,26.00
2022-11-14T03:11:16.711Z,26.60
2022-11-14T03:16:38.810Z,26.15
2022-11-14T03:22:00.875Z,28.08
2022-11-14T03:27:24.101Z,28.33
2022-11-14T03:32:45.848Z,25.20
2022-11-14T03:38:07.730Z,27.30
2022-11-14T03:43:34.019Z,28.23
2022-11-14T03:48:56.038Z,25.77
2022-11-14T03:54:17.938Z,26.13
2022-11-14T03:59:41.106Z,25.35
2022-11-14T04:05:03.251Z,27.23
2022-11-14T04:10:25.225Z,26.35
2022-11-14T04:15:48.518Z,26.30
2022-11-14T04:21:10.752Z,27.30
2022-11-14T04:26:32.598Z,25.85
2022-11-14T04:31:55.772Z,26.23
2022-11-14T04:37:17.520Z,26.77
2022-11-14T04:42:39.938Z,25.10
2022-11-14T04:48:03.250Z,26.90
2022-11-14T04:53:25.142Z,26.30
2022-11-14T04:58:46.859Z,26.00
2022-11-14T05:04:10.079Z,25.20
2022-11-14T05:09:32.344Z,26.15
2022-11-14T05:14:54.139Z,26.05
2022-11-14T05:20:17.513Z,26.98
2022-11-14T05:25:39.747Z,26.10
2022-11-14T05:31:02.924Z,24.92
2022-11-14T05:36:26.348Z,24.88
2022-11-14T05:41:48.117Z,26.05
2022-11-14T05:47:09.784Z,27.33
2022-11-14T05:52:33.340Z,25.95
2022-11-14T05:57:55.207Z,26.67
2022-11-14T06:03:16.927Z,23.38
2022-11-14T06:08:40.370Z,25.45
2022-11-14T06:14:04.737Z,23.58
2022-11-14T06:19:28.687Z,24.20
2022-11-14T06:24:51.904Z,24.90
2022-11-14T06:30:14.607Z,24.63
2022-11-14T06:35:37.250Z,24.48
2022-11-14T06:41:08.245Z,23.35
2022-11-14T06:51:52.258Z,24.77
2022-11-14T06:57:15.386Z,23.98
2022-11-14T07:02:37.321Z,24.65
2022-11-14T07:07:59.844Z,23.92
2022-11-14T07:13:23.213Z,23.33
2022-11-14T07:18:45.188Z,24.20
2022-11-14T07:24:07.674Z,23.23
2022-11-14T07:29:31.231Z,23.92
2022-11-14T07:34:55.721Z,22.10
2022-11-14T07:40:23.366Z,22.55
2022-11-14T07:45:46.647Z,22.85
2022-11-14T07:51:11.647Z,23.75
2022-11-14T07:56:33.794Z,23.50
2022-11-14T08:01:57.235Z,22.70
2022-11-14T08:07:19.124Z,24.02
2022-11-14T08:12:41.685Z,22.35
2022-11-14T08:18:05.245Z,21.90
2022-11-14T08:23:27.139Z,22.35
2022-11-14T08:28:49.201Z,21.30
2022-11-14T08:34:12.465Z,26.55
2022-11-14T08:39:34.909Z,23.20
2022-11-14T08:44:56.724Z,22.65
2022-11-14T08:50:19.955Z,22.13
2022-11-14T08:55:45.200Z,22.75
2022-11-14T09:01:08.610Z,21.92
2022-11-14T09:06:32.165Z,21.63
2022-11-14T09:11:54.280Z,39.83
2022-11-14T09:17:16.289Z,22.02
2022-11-14T09:22:39.776Z,21.42
2022-11-14T09:28:05.813Z,21.30
2022-11-14T09:33:28.196Z,21.45
2022-11-14T09:38:52.550Z,19.58
2022-11-14T09:44:46.904Z,21.65
2022-11-14T09:50:14.427Z,21.00
2022-11-14T09:55:37.941Z,19.83
2022-11-14T10:01:09.306Z,20.30
2022-11-14T10:06:34.923Z,21.50
2022-11-14T10:12:05.714Z,19.30
2022-11-14T10:17:55.894Z,22.13
2022-11-14T10:23:29.908Z,20.83
2022-11-14T10:29:16.791Z,19.38
2022-11-14T10:34:46.500Z,18.05
2022-11-14T10:40:18.771Z,17.85
2022-11-14T10:45:48.355Z,17.50
2022-11-14T10:51:20.296Z,18.17
2022-11-14T10:56:47.861Z,16.10
2022-11-14T11:02:11.815Z,16.98
2022-11-14T11:08:14.952Z,16.83
2022-11-14T11:13:54.729Z,15.93
2022-11-14T11:19:25.085Z,16.20
2022-11-14T11:24:47.331Z,16.48
2022-11-14T11:30:20.000Z,17.02
2022-11-14T11:35:44.936Z,18.48
2022-11-14T11:42:02.280Z,17.65
2022-11-14T11:47:09.589Z,20.10
2022-11-14T11:52:38.514Z,23.42
2022-11-14T11:58:05.373Z,20.70
2022-11-14T12:03:28.037Z,21.58
2022-11-14T12:09:06.549Z,22.40
2022-11-14T12:14:54.311Z,24.73
2022-11-14T12:20:28.976Z,24.35
2022-11-14T12:26:15.937Z,31.70
2022-11-14T12:31:40.314Z,26.15
2022-11-14T12:37:10.195Z,26.77
2022-11-14T12:42:34.023Z,23.48
2022-11-14T12:48:21.771Z,23.67
2022-11-14T12:53:44.834Z,20.45
2022-11-14T12:59:40.566Z,22.25
2022-11-14T13:05:37.503Z,17.30
2022-11-14T13:11:00.101Z,17.27
2022-11-14T13:16:48.811Z,16.92
2022-11-14T13:22:37.764Z,17.38
2022-11-14T13:28:46.244Z,18.15
2022-11-14T13:34:40.293Z,18.17
2022-11-14T13:40:09.807Z,17.80
2022-11-14T13:45:53.855Z,18.92
2022-11-14T13:51:42.277Z,19.88
2022-11-14T13:57:15.434Z,18.42
2022-11-14T14:02:54.195Z,18.40
2022-11-14T14:08:25.795Z,19.35
2022-11-14T14:14:00.775Z,17.95
2022-11-14T14:19:33.316Z,19.05
2022-11-14T14:25:05.893Z,18.67
2022-11-14T14:30:28.065Z,18.40
2022-11-14T14:35:54.903Z,17.50
2022-11-14T14:41:20.451Z,18.70
2022-11-14T14:46:42.556Z,18.15
2022-11-14T14:52:20.877Z,18.13
2022-11-14T14:57:44.203Z,18.00
2022-11-14T15:03:06.971Z,20.58
2022-11-14T15:08:30.823Z,19.13
2022-11-14T15:13:57.588Z,18.40
2022-11-14T15:19:24.400Z,17.63
2022-11-14T15:25:04.038Z,19.88
2022-11-14T15:30:31.238Z,19.02
2022-11-14T15:36:07.484Z,18.63
2022-11-14T15:41:30.518Z,18.80
2022-11-14T15:46:53.940Z,17.10
2022-11-14T15:52:22.676Z,19.13
2022-11-14T15:57:48.428Z,16.88
2022-11-14T16:03:20.240Z,20.17
2022-11-14T16:08:42.531Z,18.58
2022-11-14T16:14:04.436Z,17.35
2022-11-14T16:19:27.964Z,19.38
2022-11-14T16:24:50.324Z,19.00
2022-11-14T16:30:13.564Z,19.58
2022-11-14T16:35:37.330Z,19.35
2022-11-14T16:41:00.569Z,17.77
2022-11-14T16:46:22.925Z,19.25
2022-11-14T16:51:49.996Z,17.38
2022-11-14T16:57:12.890Z,16.85
2022-11-14T17:02:35.028Z,16.85
2022-11-14T17:08:01.177Z,18.23
2022-11-14T17:13:25.473Z,19.87
2022-11-14T17:18:52.288Z,18.85
2022-11-14T17:24:15.793Z,19.40
2022-11-14T17:29:37.853Z,28.85
2022-11-14T17:34:59.793Z,19.52
2022-11-14T17:40:23.255Z,19.30
2022-11-14T17:45:55.189Z,16.75
2022-11-14T17:51:17.780Z,18.00
2022-11-14T17:56:46.553Z,16.23
2022-11-14T18:02:15.030Z,17.15
2022-11-14T18:07:36.950Z,16.33
2022-11-14T18:13:03.907Z,17.80
2022-11-14T18:18:25.750Z,16.35
2022-11-14T18:23:51.528Z,16.25
2022-11-14T18:29:15.821Z,18.10
2022-11-14T18:34:38.033Z,18.08
2022-11-14T18:40:00.058Z,19.33
2022-11-14T18:45:23.363Z,16.73
2022-11-14T18:50:45.606Z,51.22
2022-11-14T18:56:10.306Z,20.08
2022-11-14T19:01:35.150Z,17.25
2022-11-14T19:06:57.485Z,17.50
2022-11-14T19:12:20.980Z,19.70
2022-11-14T19:17:44.370Z,20.20
2022-11-14T19:23:06.337Z,17.60
2022-11-14T19:28:29.595Z,17.00
2022-11-14T19:33:52.914Z,15.80
2022-11-14T19:39:14.749Z,14.73
2022-11-14T19:44:36.689Z,15.95
2022-11-14T19:50:00.119Z,16.08
2022-11-14T19:55:22.075Z,19.13
2022-11-14T20:00:43.919Z,15.88
2022-11-14T20:06:15.311Z,16.13
2022-11-14T20:11:37.604Z,14.77
2022-11-14T20:16:59.573Z,14.88
2022-11-14T20:22:22.902Z,15.52
2022-11-14T20:27:44.901Z,14.93
2022-11-14T20:33:07.700Z,14.02
2022-11-14T20:38:31.928Z,14.90
2022-11-14T20:43:53.889Z,14.32
2022-11-14T20:49:15.785Z,11.95
2022-11-14T20:54:38.948Z,13.65
2022-11-14T21:00:00.892Z,14.38
2022-11-14T21:05:23.087Z,13.55
2022-11-14T21:10:49.715Z,15.75
2022-11-14T21:16:13.939Z,15.25
2022-11-14T21:21:37.368Z,16.25
2022-11-14T21:27:00.612Z,14.68
2022-11-14T21:32:22.468Z,15.45
2022-11-14T21:37:44.262Z,15.98
2022-11-14T21:43:07.750Z,17.02
2022-11-14T21:48:35.150Z,17.45
2022-11-14T21:54:00.328Z,17.85
2022-11-14T21:59:27.502Z,17.67
2022-11-14T22:04:49.807Z,17.35
2022-11-14T22:10:11.743Z,17.98
2022-11-14T22:15:36.445Z,16.85
2022-11-14T22:20:59.682Z,18.23
2022-11-14T22:26:22.131Z,17.75
2022-11-14T22:31:45.918Z,19.48
2022-11-14T22:37:08.109Z,24.17
2022-11-14T22:42:30.538Z,18.08
2022-11-14T22:47:58.655Z,17.30
2022-11-14T22:53:20.898Z,17.65
2022-11-14T22:58:44.424Z,19.60
2022-11-14T23:04:07.819Z,19.15
2022-11-14T23:09:30.819Z,18.45
2022-11-14T23:14:52.876Z,17.98
2022-11-14T23:20:16.872Z,20.63
2022-11-14T23:25:39.220Z,20.75
2022-11-14T23:31:02.239Z,21.83
2022-11-14T23:36:25.934Z,22.05
2022-11-14T23:41:48.055Z,21.73
2022-11-14T23:47:09.841Z,21.95
2022-11-14T23:52:32.956Z,22.30
2022-11-14T23:57:55.110Z,22.98
